Time;durP1;ratioP1;P1;durP2;ratioP2;P2;SDS_P1;SDS_P2;PMS_P1;PMS_P2;Temp;Humidity;BMP_temperature;BMP_pressure;BME280_temperature;BME280_humidity;BME280_pressure;Samples;Min_cycle;Max_cycle;Signal;HPM_P1;HPM_P2
2023/12/19 00:02:20;;;;;;;;;;;;;;;2.72;100.00;102087.13;5019375;28;20369;-78
2023/12/19 00:04:46;;;;;;;;;;;;;;;2.73;100.00;102072.00;5017665;28;19918;-78
2023/12/19 00:07:11;;;;;;;;;;;;;;;2.69;100.00;102075.84;5014915;28;19968;-78
2023/12/19 00:09:36;;;;;;;;;;;;;;;2.73;100.00;102072.00;5018424;28;19929;-79
2023/12/19 00:12:04;;;;;;;;;;;;;;;2.67;100.00;102086.63;5017986;28;19922;-79
2023/12/19 00:14:30;;;;;;;;;;;;;;;2.72;100.00;102073.84;5016104;28;19971;-78
2023/12/19 00:16:55;;;;;;;;;;;;;;;2.74;100.00;102092.31;5016195;28;19977;-79
2023/12/19 00:19:20;;;;;;;;;;;;;;;2.76;100.00;102093.06;5015475;28;19932;-78
2023/12/19 00:21:45;;;;;;;;;;;;;;;2.80;100.00;102081.22;5013953;28;19918;-78
2023/12/19 00:24:11;;;;;;;;;;;;;;;2.80;100.00;102094.53;5006108;28;19932;-78
2023/12/19 00:26:36;;;;;;;;;;;;;;;2.86;100.00;102088.72;5015118;28;20396;-78
2023/12/19 00:29:02;;;;;;;;;;;;;;;2.84;100.00;102084.50;5013739;28;19929;-79
2023/12/19 00:31:27;;;;;;;;;;;;;;;2.85;100.00;102073.72;5013226;28;19928;-78
2023/12/19 00:33:52;;;;;;;;;;;;;;;2.82;100.00;102067.81;5014574;28;19926;-78
2023/12/19 00:36:21;;;;;;;;;;;;;;;2.81;100.00;102066.97;5013458;28;19976;-78
2023/12/19 00:38:46;;;;;;;;;;;;;;;2.80;100.00;102062.63;5013586;28;19957;-78
2023/12/19 00:41:17;;;;;;;;;;;;;;;2.76;100.00;102061.16;5014698;28;19951;-78
2023/12/19 00:43:42;;;;;;;;;;;;;;;2.82;100.00;102060.69;5013257;28;19918;-78
2023/12/19 00:46:08;;;;;;;;;;;;;;;2.79;100.00;102058.25;5013155;28;20334;-78
2023/12/19 00:48:36;;;;;;;;;;;;;;;2.82;100.00;102046.53;5014053;28;20389;-78
2023/12/19 00:51:01;;;;;;;;;;;;;;;2.80;100.00;102033.38;5014241;28;19925;-79
2023/12/19 00:53:26;;;;;;;;;;;;;;;2.81;100.00;102024.41;5013661;28;20353;-78
2023/12/19 00:55:52;;;;;;;;;;;;;;;2.75;100.00;102030.19;5010185;28;19921;-79
2023/12/19 00:58:17;;;;;;;;;;;;;;;2.79;100.00;102015.72;5014199;28;19921;-78
2023/12/19 01:00:42;;;;;;;;;;;;;;;2.81;100.00;102003.16;5012908;28;19941;-78
2023/12/19 01:03:07;;;;;;;;;;;;;;;2.78;100.00;102006.03;5013461;28;19930;-78
2023/12/19 01:05:32;;;;;;;;;;;;;;;2.78;100.00;102002.50;5013148;28;19975;-78
2023/12/19 01:08:00;;;;;;;;;;;;;;;2.83;100.00;101990.56;5013661;28;19925;-79
2023/12/19 01:10:26;;;;;;;;;;;;;;;2.83;100.00;101990.56;5013561;28;20369;-78
2023/12/19 01:12:51;;;;;;;;;;;;;;;2.82;100.00;101988.88;5013861;28;19924;-78
2023/12/19 01:15:16;;;;;;;;;;;;;;;2.82;100.00;101999.53;5014049;28;19925;-78
2023/12/19 01:17:42;;;;;;;;;;;;;;;2.83;100.00;101998.53;5012930;28;20009;-78
2023/12/19 01:20:09;;;;;;;;;;;;;;;2.86;100.00;101994.81;5014283;28;20332;-79
2023/12/19 01:22:34;;;;;;;;;;;;;;;2.86;100.00;101995.66;5003170;28;19952;-78
2023/12/19 01:24:59;;;;;;;;;;;;;;;2.86;100.00;101990.31;5009225;28;19964;-78
2023/12/19 01:27:24;;;;;;;;;;;;;;;2.86;100.00;101992.97;5014622;28;19936;-78
2023/12/19 01:29:49;;;;;;;;;;;;;;;2.86;100.00;101995.66;5012964;28;19922;-79
2023/12/19 01:32:15;;;;;;;;;;;;;;;2.87;100.00;101996.50;5013318;28;19988;-78
2023/12/19 01:34:40;;;;;;;;;;;;;;;2.84;100.00;101992.25;5012635;28;19921;-78
2023/12/19 01:37:05;;;;;;;;;;;;;;;2.85;100.00;101999.25;5013094;28;19932;-78
2023/12/19 01:39:30;;;;;;;;;;;;;;;2.88;100.00;101988.41;5008206;28;19926;-78
2023/12/19 01:41:55;;;;;;;;;;;;;;;2.86;100.00;101985.00;5004726;28;19921;-78
2023/12/19 01:44:21;;;;;;;;;;;;;;;2.84;100.00;101991.41;5012610;28;19925;-78
2023/12/19 01:46:46;;;;;;;;;;;;;;;2.84;100.00;101980.78;5012533;28;19922;-78
2023/12/19 01:49:11;;;;;;;;;;;;;;;2.86;100.00;101979.69;5001153;28;19921;-78
2023/12/19 01:51:36;;;;;;;;;;;;;;;2.84;100.00;101973.63;5026247;28;19924;-78
2023/12/19 01:54:03;;;;;;;;;;;;;;;2.83;100.00;101989.72;4994713;28;19925;-78
2023/12/19 01:56:28;;;;;;;;;;;;;;;2.88;100.00;101983.06;5013420;28;19929;-78
2023/12/19 01:58:53;;;;;;;;;;;;;;;2.89;100.00;101975.97;5011639;28;19929;-78
2023/12/19 02:01:19;;;;;;;;;;;;;;;2.95;100.00;101982.63;4996195;28;19918;-78
2023/12/19 02:03:44;;;;;;;;;;;;;;;2.92;100.00;101985.50;4995886;28;20373;-78
2023/12/19 02:06:09;;;;;;;;;;;;;;;2.95;100.00;101978.13;4995015;28;19918;-78
2023/12/19 02:08:37;;;;;;;;;;;;;;;2.97;100.00;101972.72;5012850;28;19948;-78
2023/12/19 02:11:03;;;;;;;;;;;;;;;2.99;100.00;101962.78;5014432;28;19917;-78
2023/12/19 02:13:28;;;;;;;;;;;;;;;2.97;100.00;101943.44;4995049;28;19929;-78
2023/12/19 02:15:53;;;;;;;;;;;;;;;2.97;100.00;101952.25;5013380;28;19918;-78
2023/12/19 02:18:19;;;;;;;;;;;;;;;2.95;100.00;101950.69;5016683;28;19977;-78
2023/12/19 02:20:47;;;;;;;;;;;;;;;2.96;100.00;101949.72;5015331;28;19924;-79
2023/12/19 02:23:13;;;;;;;;;;;;;;;2.90;100.00;101952.84;5016529;28;19928;-78
2023/12/19 02:25:38;;;;;;;;;;;;;;;2.93;100.00;101941.97;5022994;28;19921;-78
2023/12/19 02:59:54;;;;;;;;;;;;;;;3.00;100.00;101900.66;5004405;28;20378;-79
2023/12/19 03:02:19;;;;;;;;;;;;;;;3.06;100.00;101900.16;5011266;28;20008;-79
2023/12/19 03:04:44;;;;;;;;;;;;;;;3.09;100.00;101889.25;5007766;28;19982;-79
2023/12/19 03:07:10;;;;;;;;;;;;;;;3.09;100.00;101873.31;5010626;28;19961;-79
2023/12/19 03:09:35;;;;;;;;;;;;;;;3.09;100.00;101878.63;5002808;28;19988;-79
2023/12/19 03:12:03;;;;;;;;;;;;;;;3.08;100.00;101886.75;5009565;28;19921;-79
2023/12/19 03:14:28;;;;;;;;;;;;;;;3.12;100.00;101872.19;5005367;28;19921;-80
2023/12/19 03:16:54;;;;;;;;;;;;;;;3.15;100.00;101861.31;5011600;28;19944;-79
2023/12/19 03:19:19;;;;;;;;;;;;;;;3.09;100.00;101851.19;5012373;28;19947;-79
2023/12/19 03:21:44;;;;;;;;;;;;;;;3.14;100.00;101839.19;5001284;28;19917;-79
2023/12/19 03:24:22;;;;;;;;;;;;;;;3.16;100.00;101831.94;5068836;23;19926;-79
2023/12/19 03:26:47;;;;;;;;;;;;;;;3.11;100.00;101839.44;5011988;28;19949;-80
2023/12/19 03:29:12;;;;;;;;;;;;;;;3.13;100.00;101832.19;5011690;28;19929;-80
2023/12/19 03:31:38;;;;;;;;;;;;;;;3.20;100.00;101821.88;5012273;28;19972;-77
2023/12/19 03:34:03;;;;;;;;;;;;;;;3.18;100.00;101816.66;5010489;28;20480;-77
2023/12/19 03:36:28;;;;;;;;;;;;;;;3.24;100.00;101815.34;5028794;23;19933;-77
2023/12/19 03:38:53;;;;;;;;;;;;;;;3.23;100.00;101802.16;5004927;28;19922;-77
2023/12/19 03:41:19;;;;;;;;;;;;;;;3.24;100.00;101802.06;5009687;28;19926;-77
2023/12/19 03:43:44;;;;;;;;;;;;;;;3.26;100.00;101799.25;4996935;28;20429;-77
2023/12/19 03:46:10;;;;;;;;;;;;;;;3.27;100.00;101784.97;5003194;28;20369;-77
2023/12/19 03:48:35;;;;;;;;;;;;;;;3.27;100.00;101801.78;5015530;28;19928;-77
2023/12/19 03:51:00;;;;;;;;;;;;;;;3.30;100.00;101800.69;5005113;28;19929;-77
2023/12/19 03:53:26;;;;;;;;;;;;;;;3.34;100.00;101794.16;5022425;28;19917;-77
2023/12/19 03:55:51;;;;;;;;;;;;;;;3.31;100.00;101799.72;5010605;28;19952;-76
2023/12/19 03:58:16;;;;;;;;;;;;;;;3.33;100.00;101790.63;5007824;28;20337;-77
2023/12/19 04:00:42;;;;;;;;;;;;;;;3.30;100.00;101796.22;5009162;28;20289;-77
2023/12/19 04:03:10;;;;;;;;;;;;;;;3.37;100.00;101769.94;5013114;28;20427;-77
2023/12/19 04:05:35;;;;;;;;;;;;;;;3.36;100.00;101784.22;5006155;28;20314;-77
2023/12/19 04:08:00;;;;;;;;;;;;;;;3.38;100.00;101779.59;5012539;28;19928;-77
2023/12/19 04:10:25;;;;;;;;;;;;;;;3.38;100.00;101779.59;5015310;28;19921;-77
2023/12/19 04:12:50;;;;;;;;;;;;;;;3.40;100.00;101774.16;5007897;28;19922;-77
2023/12/19 04:15:16;;;;;;;;;;;;;;;3.38;100.00;101768.13;5010836;28;19921;-77
2023/12/19 04:17:41;;;;;;;;;;;;;;;3.41;100.00;101782.03;5002757;28;19921;-77
2023/12/19 04:20:07;;;;;;;;;;;;;;;3.40;100.00;101780.31;5002922;28;19922;-77
2023/12/19 04:22:32;;;;;;;;;;;;;;;3.38;100.00;101774.28;5014838;28;19991;-77
2023/12/19 04:24:57;;;;;;;;;;;;;;;3.47;100.00;101757.56;5014899;28;20425;-77
2023/12/19 04:27:23;;;;;;;;;;;;;;;3.50;100.00;101761.78;5013782;28;19967;-77
2023/12/19 04:29:50;;;;;;;;;;;;;;;3.47;100.00;101754.91;5014677;28;20369;-77
2023/12/19 04:32:15;;;;;;;;;;;;;;;3.54;100.00;101741.06;5011742;28;19975;-76
2023/12/19 04:34:40;;;;;;;;;;;;;;;3.55;100.00;101732.97;5007961;28;19926;-77
2023/12/19 04:37:05;;;;;;;;;;;;;;;3.56;100.00;101725.81;5004113;28;20056;-77
2023/12/19 04:39:31;;;;;;;;;;;;;;;3.56;100.00;101716.00;5004650;28;20068;-77
2023/12/19 04:41:56;;;;;;;;;;;;;;;3.59;100.00;101704.25;5001898;28;20366;-77
2023/12/19 04:44:21;;;;;;;;;;;;;;;3.55;100.00;101694.81;5001232;28;19964;-77
2023/12/19 04:46:47;;;;;;;;;;;;;;;3.58;100.00;101702.56;5007111;28;19932;-78
2023/12/19 04:49:12;;;;;;;;;;;;;;;3.56;100.00;101715.16;4997962;28;19931;-78
2023/12/19 04:51:37;;;;;;;;;;;;;;;3.55;100.00;101709.00;5010518;28;19921;-77
2023/12/19 04:54:03;;;;;;;;;;;;;;;3.60;100.00;101711.25;5002283;28;19921;-77
2023/12/19 04:56:29;;;;;;;;;;;;;;;3.61;100.00;101704.97;5007674;28;19948;-78
2023/12/19 04:58:54;;;;;;;;;;;;;;;3.61;100.00;101692.53;5013077;28;19963;-81
2023/12/19 05:01:28;;;;;;;;;;;;;;;3.62;100.00;101693.34;5006585;28;20289;-80
2023/12/19 05:03:53;;;;;;;;;;;;;;;3.63;100.00;101695.03;5002597;28;20319;-76
2023/12/19 05:06:18;;;;;;;;;;;;;;;3.64;100.00;101696.72;5008202;28;19922;-85
2023/12/19 05:08:45;;;;;;;;;;;;;;;3.60;100.00;101705.94;5011116;28;20034;-80
2023/12/19 05:11:10;;;;;;;;;;;;;;;3.62;100.00;101672.88;5001304;28;20285;-79
2023/12/19 05:13:35;;;;;;;;;;;;;;;3.67;100.00;101696.47;5007387;28;19918;-79
2023/12/19 05:16:13;;;;;;;;;;;;;;;3.68;100.00;101679.53;4992577;28;19934;-80
2023/12/19 05:18:41;;;;;;;;;;;;;;;3.60;100.00;101689.97;5013884;28;20012;-80
2023/12/19 05:21:06;;;;;;;;;;;;;;;3.60;100.00;101684.63;5013335;28;20629;-80
2023/12/19 05:23:31;;;;;;;;;;;;;;;3.70;100.00;101680.25;5012565;28;19968;-80
2023/12/19 05:25:56;;;;;;;;;;;;;;;3.67;100.00;101680.50;5005379;28;19979;-80
2023/12/19 05:28:34;;;;;;;;;;;;;;;3.69;100.00;101672.34;5018297;23;20032;-79
2023/12/19 05:31:00;;;;;;;;;;;;;;;3.72;100.00;101672.09;5009973;28;19925;-79
2023/12/19 05:33:34;;;;;;;;;;;;;;;3.69;100.00;101662.56;5006560;28;19996;-79
2023/12/19 05:36:12;;;;;;;;;;;;;;;3.65;100.00;101655.81;5006152;28;19994;-79
2023/12/19 05:38:37;;;;;;;;;;;;;;;3.67;100.00;101648.53;5002657;28;20021;-80
2023/12/19 05:41:03;;;;;;;;;;;;;;;3.69;100.00;101659.03;5012944;28;19964;-79
2023/12/19 05:43:28;;;;;;;;;;;;;;;3.71;100.00;101651.78;5003868;28;19931;-80
2023/12/19 05:46:13;;;;;;;;;;;;;;;3.69;100.00;101646.59;5012206;28;19918;-80
2023/12/19 05:48:39;;;;;;;;;;;;;;;3.63;100.00;101658.59;4996561;28;19921;-78
2023/12/19 05:51:04;;;;;;;;;;;;;;;3.68;100.00;101660.88;4985033;28;20447;-79
2023/12/19 05:53:30;;;;;;;;;;;;;;;3.73;100.00;101661.31;4991048;28;19922;-79
2023/12/19 05:55:55;;;;;;;;;;;;;;;3.72;100.00;101659.63;5012949;28;19917;-79
2023/12/19 05:58:20;;;;;;;;;;;;;;;3.74;100.00;101671.00;5010131;28;19922;-79
2023/12/19 06:00:48;;;;;;;;;;;;;;;3.72;100.00;101656.97;5003128;28;19925;-78
2023/12/19 06:03:13;;;;;;;;;;;;;;;3.75;100.00;101664.69;5012007;28;19917;-78
2023/12/19 06:05:41;;;;;;;;;;;;;;;3.77;100.00;101654.75;5013459;28;19976;-78
2023/12/19 06:08:06;;;;;;;;;;;;;;;3.73;100.00;101658.66;5002263;28;19968;-79
2023/12/19 06:10:31;;;;;;;;;;;;;;;3.70;100.00;101653.59;5004503;28;20297;-78
2023/12/19 06:12:57;;;;;;;;;;;;;;;3.72;100.00;101654.28;5012199;28;20340;-78
2023/12/19 06:15:22;;;;;;;;;;;;;;;3.76;100.00;101663.72;5004312;28;19921;-78
2023/12/19 06:17:47;;;;;;;;;;;;;;;3.82;100.00;101661.50;5015957;28;20293;-78
2023/12/19 06:20:12;;;;;;;;;;;;;;;3.79;100.00;101657.31;5020708;28;20238;-78
2023/12/19 06:22:44;;;;;;;;;;;;;;;3.84;100.00;101654.22;5375410;22;19925;-78
2023/12/19 06:25:09;;;;;;;;;;;;;;;3.86;100.00;101653.09;4986039;28;19964;-78
2023/12/19 06:27:34;;;;;;;;;;;;;;;3.89;100.00;101655.50;5004605;28;20350;-79
2023/12/19 06:30:02;;;;;;;;;;;;;;;3.88;100.00;101651.16;5000916;28;20289;-79
2023/12/19 06:32:27;;;;;;;;;;;;;;;3.88;100.00;101645.84;5001509;28;19932;-79
2023/12/19 06:34:54;;;;;;;;;;;;;;;3.88;100.00;101639.69;4998598;28;19996;-79
2023/12/19 06:37:19;;;;;;;;;;;;;;;3.88;100.00;101631.69;5001459;28;19976;-79
2023/12/19 06:39:45;;;;;;;;;;;;;;;3.89;100.00;101636.88;5005938;28;19926;-79
2023/12/19 06:42:10;;;;;;;;;;;;;;;3.96;100.00;101620.34;5012441;28;19987;-79
2023/12/19 06:44:35;;;;;;;;;;;;;;;3.96;100.00;101615.84;5008733;28;19922;-78
2023/12/19 06:47:03;;;;;;;;;;;;;;;3.99;100.00;101612.94;5008349;28;20008;-78
2023/12/19 06:49:28;;;;;;;;;;;;;;;4.00;100.00;101609.28;5004375;28;19979;-79
2023/12/19 06:51:54;;;;;;;;;;;;;;;4.01;100.00;101604.78;5012381;28;20374;-79
2023/12/19 06:54:19;;;;;;;;;;;;;;;3.96;100.00;101605.19;5007985;28;19991;-79
2023/12/19 06:56:44;;;;;;;;;;;;;;;4.05;100.00;101607.06;5024595;22;19941;-79
2023/12/19 06:59:15;;;;;;;;;;;;;;;4.07;100.00;101594.44;5010761;28;19962;-78
2023/12/19 07:01:56;;;;;;;;;;;;;;;4.06;100.00;101599.91;5005936;28;19922;-79
2023/12/19 07:04:31;;;;;;;;;;;;;;;4.07;100.00;101597.09;4995043;28;20023;-79
2023/12/19 07:07:08;;;;;;;;;;;;;;;4.10;100.00;101604.81;5008439;28;20004;-78
2023/12/19 07:09:34;;;;;;;;;;;;;;;4.10;100.00;101599.50;5162103;23;19972;-79
2023/12/19 07:12:00;;;;;;;;;;;;;;;4.12;100.00;101598.50;4995932;28;19925;-79
2023/12/19 07:14:41;;;;;;;;;;;;;;;4.14;100.00;101593.91;5014635;22;19929;-79
2023/12/19 07:17:09;;;;;;;;;;;;;;;4.14;100.00;101581.44;4989986;28;19925;-79
2023/12/19 07:19:35;;;;;;;;;;;;;;;4.18;100.00;101585.50;4991444;28;20263;-79
2023/12/19 07:22:00;;;;;;;;;;;;;;;4.17;100.00;101582.97;4986457;28;19929;-79
2023/12/19 07:24:35;;;;;;;;;;;;;;;4.16;100.00;101574.13;4991173;28;19928;-80
2023/12/19 07:27:01;;;;;;;;;;;;;;;4.19;100.00;101576.50;4974123;28;19933;-81
2023/12/19 07:29:26;;;;;;;;;;;;;;;4.20;100.00;101569.38;4976053;28;19922;-81
2023/12/19 07:32:04;;;;;;;;;;;;;;;4.26;100.00;101571.47;4986699;28;19921;-83
2023/12/19 07:34:30;;;;;;;;;;;;;;;4.29;100.00;101563.22;4986043;28;19965;-83
2023/12/19 07:36:55;;;;;;;;;;;;;;;4.28;100.00;101568.69;4984227;28;19949;-83
2023/12/19 07:39:23;;;;;;;;;;;;;;;4.27;100.00;101575.81;4987304;28;19926;-83
2023/12/19 07:41:49;;;;;;;;;;;;;;;4.31;100.00;101561.25;4997252;28;19929;-83
2023/12/19 07:44:29;;;;;;;;;;;;;;;4.34;100.00;101579.63;4982786;28;20409;-82
2023/12/19 07:47:07;;;;;;;;;;;;;;;4.35;100.00;101576.00;4991589;28;19944;-82
2023/12/19 07:49:32;;;;;;;;;;;;;;;4.29;100.00;101570.38;4977284;28;19918;-82
2023/12/19 07:51:57;;;;;;;;;;;;;;;4.36;100.00;101575.00;4988084;28;19924;-82
2023/12/19 07:54:22;;;;;;;;;;;;;;;4.38;100.00;101573.06;4976839;28;19975;-83
2023/12/19 07:56:48;;;;;;;;;;;;;;;4.33;100.00;101575.28;4990111;28;19917;-82
2023/12/19 07:59:13;;;;;;;;;;;;;;;4.42;100.00;101570.94;4996616;28;19925;-82
2023/12/19 08:01:39;;;;;;;;;;;;;;;4.42;100.00;101562.09;4981132;28;19922;-83
2023/12/19 08:04:04;;;;;;;;;;;;;;;4.45;100.00;101572.47;4981999;28;19929;-82
2023/12/19 08:06:29;;;;;;;;;;;;;;;4.39;100.00;101577.41;4979555;28;19929;-82
2023/12/19 08:08:57;;;;;;;;;;;;;;;4.44;100.00;101561.00;4976106;28;19918;-81
2023/12/19 08:11:22;;;;;;;;;;;;;;;4.42;100.00;101567.44;4975109;28;19946;-81
2023/12/19 08:13:50;;;;;;;;;;;;;;;4.47;100.00;101570.53;4975348;28;20374;-82
2023/12/19 08:16:15;;;;;;;;;;;;;;;4.50;100.00;101564.91;4978086;28;20003;-80
2023/12/19 08:18:40;;;;;;;;;;;;;;;4.50;100.00;101559.59;4993070;28;19964;-83
2023/12/19 08:21:06;;;;;;;;;;;;;;;4.58;100.00;101569.56;4987069;28;19922;-80
2023/12/19 08:23:31;;;;;;;;;;;;;;;4.52;100.00;101552.28;4989668;28;19929;-80
2023/12/19 08:25:56;;;;;;;;;;;;;;;4.53;100.00;101544.16;4974786;28;19918;-80
2023/12/19 08:28:21;;;;;;;;;;;;;;;4.57;100.00;101549.19;4987968;28;20385;-80
2023/12/19 08:30:47;;;;;;;;;;;;;;;4.63;100.00;101544.16;4988711;28;20489;-81
2023/12/19 08:33:12;;;;;;;;;;;;;;;4.63;100.00;101546.81;4974886;28;19918;-81
2023/12/19 08:35:37;;;;;;;;;;;;;;;4.67;100.00;101548.22;4975569;28;20012;-81
2023/12/19 08:38:03;;;;;;;;;;;;;;;4.66;100.00;101543.88;4981327;28;19968;-81
2023/12/19 08:40:28;;;;;;;;;;;;;;;4.68;100.00;101525.91;4981505;28;19918;-81
2023/12/19 08:42:53;;;;;;;;;;;;;;;4.70;100.00;101539.94;4975643;28;20053;-81
2023/12/19 08:45:19;;;;;;;;;;;;;;;4.69;100.00;101532.94;4981268;28;20009;-80
2023/12/19 08:47:44;;;;;;;;;;;;;;;4.76;100.00;101529.69;4980275;28;19922;-81
2023/12/19 08:50:11;;;;;;;;;;;;;;;4.67;100.00;101523.41;4985718;28;19922;-81
2023/12/19 08:52:37;;;;;;;;;;;;;;;4.76;100.00;101509.19;4976080;28;19918;-80
2023/12/19 08:55:04;;;;;;;;;;;;;;;4.78;100.00;101501.91;4975271;28;20013;-80
2023/12/19 08:57:30;;;;;;;;;;;;;;;4.78;100.00;101503.69;4975028;28;19922;-80
2023/12/19 08:59:55;;;;;;;;;;;;;;;4.81;100.00;101504.28;4976238;28;19918;-79
2023/12/19 09:02:20;;;;;;;;;;;;;;;4.80;100.00;101504.41;4994074;28;19922;-81
2023/12/19 09:04:45;;;;;;;;;;;;;;;4.78;100.00;101506.38;4980697;28;19925;-80
2023/12/19 09:07:10;;;;;;;;;;;;;;;4.81;100.00;101487.41;4976275;28;19922;-80
2023/12/19 09:09:36;;;;;;;;;;;;;;;4.81;100.00;101484.75;4987145;28;19924;-80
2023/12/19 09:12:02;;;;;;;;;;;;;;;4.82;100.00;101483.75;4974783;28;20311;-80
2023/12/19 09:14:28;;;;;;;;;;;;;;;4.84;100.00;101485.31;4975111;28;20004;-79
2023/12/19 09:16:54;;;;;;;;;;;;;;;4.81;100.00;101482.09;4982145;28;19968;-79
2023/12/19 09:19:19;;;;;;;;;;;;;;;4.82;100.00;101491.78;4993394;28;19918;-79
2023/12/19 09:21:44;;;;;;;;;;;;;;;4.89;100.00;101490.22;4989727;28;19918;-80
2023/12/19 09:24:09;;;;;;;;;;;;;;;4.85;100.00;101483.47;4974342;28;19918;-79
2023/12/19 09:26:40;;;;;;;;;;;;;;;4.81;100.00;101493.59;4978122;28;19981;-79
2023/12/19 09:29:06;;;;;;;;;;;;;;;4.86;100.00;101487.84;4994531;28;19926;-80
2023/12/19 09:31:32;;;;;;;;;;;;;;;4.90;100.00;101481.22;4993974;28;20305;-80
2023/12/19 09:33:58;;;;;;;;;;;;;;;4.92;100.00;101491.75;4983227;28;19973;-81
2023/12/19 09:36:26;;;;;;;;;;;;;;;4.93;100.00;101491.63;4988083;28;19925;-80
2023/12/19 09:38:51;;;;;;;;;;;;;;;4.93;100.00;101494.28;4975670;28;20413;-79
2023/12/19 09:41:17;;;;;;;;;;;;;;;4.88;100.00;101482.34;4975552;28;19917;-79
2023/12/19 09:43:42;;;;;;;;;;;;;;;4.88;100.00;101477.00;4975855;28;19942;-80
2023/12/19 09:46:07;;;;;;;;;;;;;;;4.92;100.00;101468.59;4975972;28;19975;-80
2023/12/19 09:48:33;;;;;;;;;;;;;;;4.93;100.00;101464.94;4989006;28;20374;-81
2023/12/19 09:51:02;;;;;;;;;;;;;;;4.92;100.00;101471.25;4982106;28;20365;-80
2023/12/19 09:53:30;;;;;;;;;;;;;;;4.90;100.00;101465.22;4984083;28;19918;-82
2023/12/19 10:01:07;;;;;;;;;;;;;;;4.94;100.00;101431.09;5043523;22;19932;-81
2023/12/19 10:03:33;;;;;;;;;;;;;;;4.91;100.00;101452.72;5015477;28;19928;-81
2023/12/19 10:06:01;;;;;;;;;;;;;;;4.91;100.00;101445.56;5010692;28;19918;-82
2023/12/19 10:08:26;;;;;;;;;;;;;;;4.84;100.00;101445.31;5021685;28;20008;-81
2023/12/19 10:10:53;;;;;;;;;;;;;;;4.92;100.00;101438.38;5003894;28;19925;-83
2023/12/19 10:13:30;;;;;;;;;;;;;;;4.91;100.00;101442.91;5009319;28;20354;-82
2023/12/19 10:15:58;;;;;;;;;;;;;;;4.94;100.00;101426.56;5007024;28;19929;-81
2023/12/19 10:18:23;;;;;;;;;;;;;;;4.96;100.00;101426.44;5009961;28;19922;-81
2023/12/19 10:20:51;;;;;;;;;;;;;;;4.93;100.00;101424.91;5013204;28;20324;-81
2023/12/19 10:23:19;;;;;;;;;;;;;;;4.94;100.00;101428.41;5006341;28;20362;-81
2023/12/19 10:25:45;;;;;;;;;;;;;;;4.91;100.00;101431.38;4985693;28;19918;-81
2023/12/19 10:28:10;;;;;;;;;;;;;;;4.89;100.00;101420.00;4983185;28;19909;-81
2023/12/19 10:30:39;;;;;;;;;;;;;;;4.90;100.00;101416.34;5016991;28;19922;-81
2023/12/19 10:33:04;;;;;;;;;;;;;;;4.92;100.00;101425.91;5017536;28;19917;-81
2023/12/19 10:38:07;;;;;;;;;;;;;;;4.89;100.00;101414.66;5373291;23;19930;-82
2023/12/19 10:40:33;;;;;;;;;;;;;;;4.92;100.00;101391.22;4981396;28;20383;-82
2023/12/19 10:42:58;;;;;;;;;;;;;;;4.99;100.00;101394.97;4975437;28;19933;-81
2023/12/19 10:45:33;;;;;;;;;;;;;;;4.97;100.00;101394.28;4990600;28;19953;-82
2023/12/19 10:47:58;;;;;;;;;;;;;;;4.94;100.00;101386.56;4980830;28;19946;-81
2023/12/19 10:52:50;;;;;;;;;;;;;;;4.97;100.00;101375.59;5840010;22;19936;-82
2023/12/19 10:58:02;;;;;;;;;;;;;;;5.01;100.00;101368.97;4962132;28;19925;-82
2023/12/19 11:00:45;;;;;;;;;;;;;;;4.99;100.00;101346.94;4978821;28;19922;-79
2023/12/19 11:06:44;;;;;;;;;;;;;;;5.03;100.00;101342.13;4978736;28;20389;-82
2023/12/19 11:09:10;;;;;;;;;;;;;;;5.04;100.00;101348.34;4965398;28;20397;-81
2023/12/19 11:11:39;;;;;;;;;;;;;;;4.99;100.00;101344.28;4957559;28;19922;-81
2023/12/19 11:14:18;;;;;;;;;;;;;;;5.07;100.00;101348.03;4995214;28;20219;-82
2023/12/19 11:19:19;;;;;;;;;;;;;;;5.09;100.00;101348.72;5057793;22;19934;-81
2023/12/19 11:21:50;;;;;;;;;;;;;;;4.98;100.00;101339.91;4982849;28;19918;-81
2023/12/19 11:24:18;;;;;;;;;;;;;;;5.05;100.00;101339.34;4990409;28;19921;-82
2023/12/19 11:26:43;;;;;;;;;;;;;;;5.04;100.00;101326.97;4998344;28;19924;-80
2023/12/19 11:29:13;;;;;;;;;;;;;;;5.08;100.00;101323.03;4997577;28;19922;-82
2023/12/19 11:31:40;;;;;;;;;;;;;;;5.04;100.00;101329.66;4991837;28;20128;-81
2023/12/19 11:34:21;;;;;;;;;;;;;;;5.12;100.00;101327.06;4997074;28;19994;-81
2023/12/19 11:36:47;;;;;;;;;;;;;;;5.06;100.00;101323.16;4996070;28;19918;-81
2023/12/19 11:39:22;;;;;;;;;;;;;;;5.14;100.00;101312.59;5004108;28;19952;-81
2023/12/19 11:41:47;;;;;;;;;;;;;;;5.15;100.00;101306.28;4996627;28;19922;-81
2023/12/19 11:44:33;;;;;;;;;;;;;;;5.21;100.00;101301.31;4995656;28;19972;-81
2023/12/19 11:47:12;;;;;;;;;;;;;;;5.16;100.00;101296.41;5007713;28;20370;-81
2023/12/19 11:49:37;;;;;;;;;;;;;;;5.15;100.00;101289.41;4992262;28;19925;-81
2023/12/19 11:52:03;;;;;;;;;;;;;;;5.18;100.00;101282.94;5021104;28;20053;-80
2023/12/19 11:54:28;;;;;;;;;;;;;;;5.15;100.00;101274.25;5147288;22;19930;-80
2023/12/19 11:56:58;;;;;;;;;;;;;;;5.24;100.00;101269.84;5014515;28;19928;-80
2023/12/19 11:59:23;;;;;;;;;;;;;;;5.29;100.00;101266.69;5016552;28;20275;-81
2023/12/19 12:01:49;;;;;;;;;;;;;;;5.23;100.00;101268.16;5014174;28;19949;-81
2023/12/19 12:04:14;;;;;;;;;;;;;;;5.25;100.00;101260.84;5014380;28;19999;-81
2023/12/19 12:06:41;;;;;;;;;;;;;;;5.27;100.00;101269.53;5015364;28;19972;-81
2023/12/19 12:09:07;;;;;;;;;;;;;;;5.33;100.00;101268.09;5015005;28;19917;-81
2023/12/19 12:11:48;;;;;;;;;;;;;;;5.35;100.00;101255.44;5014624;28;19990;-82
2023/12/19 12:14:13;;;;;;;;;;;;;;;5.31;100.00;101252.19;5015616;28;19918;-80
2023/12/19 12:16:39;;;;;;;;;;;;;;;5.29;100.00;101246.19;5013643;28;19971;-80
2023/12/19 12:19:11;;;;;;;;;;;;;;;5.30;100.00;101247.84;5013584;28;20289;-81
2023/12/19 12:21:42;;;;;;;;;;;;;;;5.32;100.00;101242.38;5002814;28;20472;-81
2023/12/19 12:24:07;;;;;;;;;;;;;;;5.27;100.00;101229.50;4997028;28;20285;-81
2023/12/19 12:26:33;;;;;;;;;;;;;;;5.33;100.00;101212.03;5012832;28;19917;-81
2023/12/19 12:28:58;;;;;;;;;;;;;;;5.37;100.00;101223.22;5015974;28;19928;-81
2023/12/19 12:31:23;;;;;;;;;;;;;;;5.35;100.00;101222.53;5014687;28;19920;-81
2023/12/19 12:33:48;;;;;;;;;;;;;;;5.37;100.00;101224.06;4985858;28;19921;-81
2023/12/19 12:36:13;;;;;;;;;;;;;;;5.34;100.00;101215.50;5068247;22;19933;-80
2023/12/19 12:38:39;;;;;;;;;;;;;;;5.31;100.00;101204.16;4997454;28;19918;-81
2023/12/19 12:41:04;;;;;;;;;;;;;;;5.36;100.00;101203.72;5008258;28;19925;-81
2023/12/19 12:43:51;;;;;;;;;;;;;;;5.32;100.00;101208.50;5007457;28;19940;-81
2023/12/19 12:46:19;;;;;;;;;;;;;;;5.27;100.00;101197.47;5009117;22;19992;-81
2023/12/19 12:48:53;;;;;;;;;;;;;;;5.34;100.00;101196.81;5014041;28;19921;-81
2023/12/19 12:51:18;;;;;;;;;;;;;;;5.34;100.00;101186.16;5015745;28;19918;-81
2023/12/19 12:53:44;;;;;;;;;;;;;;;5.31;100.00;101182.78;5013390;28;20461;-81
2023/12/19 12:56:14;;;;;;;;;;;;;;;5.26;100.00;101176.25;5013501;28;20393;-81
2023/12/19 12:58:39;;;;;;;;;;;;;;;5.26;100.00;101182.44;5495562;23;19929;-81
2023/12/19 13:01:05;;;;;;;;;;;;;;;5.28;100.00;101169.78;5059116;22;20653;-81
2023/12/19 13:03:31;;;;;;;;;;;;;;;5.25;100.00;101171.91;4994388;28;19922;-80
2023/12/19 13:06:00;;;;;;;;;;;;;;;5.24;100.00;101167.53;4995614;28;19918;-81
2023/12/19 13:08:25;;;;;;;;;;;;;;;5.25;100.00;101169.22;4988983;28;20333;-82
2023/12/19 13:10:51;;;;;;;;;;;;;;;5.27;100.00;101154.75;4985655;28;19922;-81
2023/12/19 13:13:16;;;;;;;;;;;;;;;5.19;100.00;101160.00;4995662;28;19922;-81
2023/12/19 13:15:44;;;;;;;;;;;;;;;5.21;100.00;101151.84;4995215;28;19922;-81
2023/12/19 13:18:09;;;;;;;;;;;;;;;5.22;100.00;101164.19;4993778;28;19918;-81
2023/12/19 13:20:37;;;;;;;;;;;;;;;5.21;100.00;101158.03;4995443;28;19933;-81
2023/12/19 13:23:06;;;;;;;;;;;;;;;5.28;100.00;101151.09;4980413;28;20358;-81
2023/12/19 13:25:31;;;;;;;;;;;;;;;5.32;100.00;101149.75;4988847;28;20362;-81